Terminal Aerodrome Forecast
Issued by NWS Sterling, VA

Home | Current Version | Previous Version | Text Only | Print | Product List | Glossary On
Versions: 1 2 3 4 5 6 7 8 9 10 11 12 13 14 15 16 17
000
FTUS41 KLWX 022040 AAA
TAFCHO
TAF AMD
KCHO 022040Z 0221/0318 19008KT P6SM VCTS BKN050CB
      TEMPO 0221/0223 VRB20KT 3SM TSRA
     FM030000 19005KT P6SM -SHRA VCTS OVC050CB
     FM030600 19005KT 6SM -SHRA OVC015
     FM031000 00000KT 6SM -SHRA OVC008
     FM031500 00000KT 6SM -SHRA OVC050=

USA.gov is the U.S. government's official web portal to all federal, state and local government web resources and services.